createdAt,value
2023-02-12T00:00:27.088Z,31.43
2023-02-12T00:02:55.234Z,29.87
2023-02-12T00:05:24.976Z,30.63
2023-02-12T00:07:53.123Z,29.83
2023-02-12T00:10:21.457Z,30.53
2023-02-12T00:12:49.703Z,30.73
2023-02-12T00:15:17.871Z,29.03
2023-02-12T00:17:46.001Z,29.57
2023-02-12T00:20:14.219Z,28.97
2023-02-12T00:22:43.756Z,28.80
2023-02-12T00:25:13.845Z,30.27
2023-02-12T00:27:42.008Z,31.20
2023-02-12T00:30:10.486Z,30.87
2023-02-12T00:32:38.657Z,31.33
2023-02-12T00:35:06.983Z,31.90
2023-02-12T00:37:35.161Z,31.20
2023-02-12T00:40:05.337Z,32.03
2023-02-12T00:42:33.570Z,30.77
2023-02-12T00:45:01.734Z,31.33
2023-02-12T00:47:29.874Z,31.20
2023-02-12T00:49:58.011Z,31.03
2023-02-12T00:52:26.184Z,29.83
2023-02-12T00:54:54.316Z,30.87
2023-02-12T00:57:23.826Z,31.53
2023-02-12T00:59:51.996Z,31.63
2023-02-12T01:02:20.220Z,30.27
2023-02-12T01:04:48.401Z,30.60
2023-02-12T01:07:16.617Z,31.50
2023-02-12T01:09:44.761Z,29.80
2023-02-12T01:12:12.946Z,33.07
2023-02-12T01:14:42.432Z,32.00
2023-02-12T01:17:11.088Z,32.37
2023-02-12T01:19:39.252Z,31.57
2023-02-12T01:22:07.413Z,32.80
2023-02-12T01:24:35.535Z,32.53
2023-02-12T01:27:03.672Z,30.50
2023-02-12T01:29:31.873Z,30.87
2023-02-12T01:32:01.456Z,30.63
2023-02-12T01:34:29.698Z,31.43
2023-02-12T01:36:57.827Z,31.47
2023-02-12T01:39:25.961Z,32.93
2023-02-12T01:41:54.077Z,31.70
2023-02-12T01:44:23.186Z,32.13
2023-02-12T01:46:52.060Z,31.57
2023-02-12T01:49:23.838Z,30.60
2023-02-12T01:51:53.675Z,30.30
2023-02-12T01:54:22.572Z,32.63
2023-02-12T01:56:51.001Z,31.83
2023-02-12T01:59:21.119Z,31.00
2023-02-12T02:01:49.383Z,29.47
2023-02-12T02:04:18.777Z,29.40
2023-02-12T02:06:50.588Z,30.50
2023-02-12T02:09:20.374Z,28.47
2023-02-12T02:12:06.376Z,30.80
2023-02-12T02:14:34.663Z,29.13
2023-02-12T02:17:18.290Z,26.83
2023-02-12T02:19:56.810Z,29.40
2023-02-12T02:22:29.889Z,28.40
2023-02-12T02:25:21.825Z,28.60
2023-02-12T02:27:59.121Z,27.63
2023-02-12T02:30:33.225Z,28.57
2023-02-12T02:33:08.651Z,27.03
2023-02-12T02:35:40.676Z,28.60
2023-02-12T02:38:12.530Z,29.13
2023-02-12T02:40:43.320Z,27.00
2023-02-12T02:43:13.008Z,27.40
2023-02-12T02:45:44.536Z,27.13
2023-02-12T02:48:16.544Z,29.33
2023-02-12T02:50:48.493Z,27.17
2023-02-12T02:53:19.215Z,29.17
2023-02-12T02:55:49.405Z,27.93
2023-02-12T02:58:19.576Z,28.40
2023-02-12T03:00:50.619Z,29.83
2023-02-12T03:03:20.654Z,26.73
2023-02-12T03:05:51.112Z,26.80
2023-02-12T03:08:24.187Z,28.97
2023-02-12T03:10:54.786Z,28.37
2023-02-12T03:13:24.797Z,29.63
2023-02-12T03:15:57.305Z,28.63
2023-02-12T03:18:28.078Z,27.53
2023-02-12T03:20:59.888Z,25.63
2023-02-12T03:23:29.466Z,27.77
2023-02-12T03:25:59.556Z,27.53
2023-02-12T03:28:29.569Z,27.50
2023-02-12T03:31:04.230Z,27.93
2023-02-12T03:33:37.633Z,28.03
2023-02-12T03:36:09.659Z,27.90
2023-02-12T03:38:39.248Z,27.77
2023-02-12T03:41:10.786Z,25.30
2023-02-12T03:43:45.053Z,26.87
2023-02-12T03:46:19.301Z,27.83
2023-02-12T03:48:51.169Z,27.07
2023-02-12T03:51:21.934Z,27.70
2023-02-12T03:53:50.937Z,29.07
2023-02-12T03:56:20.878Z,27.70
2023-02-12T03:58:49.041Z,26.80
2023-02-12T04:01:19.084Z,26.53
2023-02-12T04:03:47.277Z,27.03
2023-02-12T04:06:22.933Z,28.23
2023-02-12T04:08:51.309Z,27.97
2023-02-12T04:11:23.642Z,26.50
2023-02-12T04:13:59.370Z,26.53
2023-02-12T04:16:31.650Z,27.43
2023-02-12T04:19:00.397Z,27.97
2023-02-12T04:21:38.305Z,27.73
2023-02-12T04:24:11.382Z,26.77
2023-02-12T04:26:44.274Z,27.13
2023-02-12T04:29:19.090Z,27.77
2023-02-12T04:31:51.122Z,26.87
2023-02-12T04:34:21.219Z,27.93
2023-02-12T04:36:52.341Z,27.17
2023-02-12T04:39:23.010Z,26.67
2023-02-12T04:41:51.285Z,25.60
2023-02-12T04:44:20.725Z,26.67
2023-02-12T04:46:50.442Z,26.87
2023-02-12T04:49:19.337Z,24.77
2023-02-12T04:51:48.032Z,25.63
2023-02-12T04:54:16.655Z,27.10
2023-02-12T04:56:44.925Z,25.70
2023-02-12T04:59:13.251Z,27.17
2023-02-12T05:01:41.861Z,27.53
2023-02-12T05:04:12.397Z,27.13
2023-02-12T05:06:40.945Z,25.73
2023-02-12T05:09:09.914Z,26.93
2023-02-12T05:11:38.036Z,25.80
2023-02-12T05:14:06.200Z,26.67
2023-02-12T05:16:34.339Z,26.80
2023-02-12T05:19:02.534Z,27.47
2023-02-12T05:21:32.046Z,25.63
2023-02-12T05:24:00.186Z,27.30
2023-02-12T05:26:28.333Z,28.20
2023-02-12T05:28:56.689Z,26.73
2023-02-12T05:31:25.017Z,25.30
2023-02-12T05:33:53.260Z,27.93
2023-02-12T05:36:22.516Z,27.77
2023-02-12T05:38:52.568Z,27.07
2023-02-12T05:41:22.083Z,26.83
2023-02-12T05:43:50.389Z,29.40
2023-02-12T05:46:19.050Z,27.47
2023-02-12T05:48:47.738Z,27.93
2023-02-12T05:51:17.195Z,27.47
2023-02-12T05:53:45.339Z,28.03
2023-02-12T05:56:15.934Z,27.43
2023-02-12T05:58:45.571Z,27.00
2023-02-12T06:01:14.725Z,27.53
2023-02-12T06:03:43.296Z,27.53
2023-02-12T06:06:11.548Z,27.37
2023-02-12T06:08:39.913Z,26.43
2023-02-12T06:11:09.331Z,27.30
2023-02-12T06:13:38.802Z,25.53
2023-02-12T06:16:07.528Z,28.13
2023-02-12T06:18:37.203Z,27.27
2023-02-12T06:21:05.523Z,26.97
2023-02-12T06:23:33.687Z,26.23
2023-02-12T06:26:01.849Z,25.73
2023-02-12T06:28:30.149Z,27.33
2023-02-12T06:30:59.786Z,25.37
2023-02-12T06:33:27.997Z,24.10
2023-02-12T06:35:56.565Z,25.40
2023-02-12T06:38:24.945Z,24.63
2023-02-12T06:40:53.105Z,26.40
2023-02-12T06:43:21.228Z,25.93
2023-02-12T06:45:49.373Z,24.57
2023-02-12T06:48:18.889Z,25.70
2023-02-12T06:50:47.053Z,25.20
2023-02-12T06:53:15.212Z,25.93
2023-02-12T06:55:43.428Z,24.40
2023-02-12T06:58:11.557Z,24.63
2023-02-12T07:00:39.739Z,23.30
2023-02-12T07:03:07.907Z,22.57
2023-02-12T07:05:37.825Z,22.23
2023-02-12T07:08:05.999Z,23.30
2023-02-12T07:10:34.121Z,21.53
2023-02-12T07:13:02.258Z,23.80
2023-02-12T07:15:30.404Z,24.50
2023-02-12T07:17:58.530Z,25.90
2023-02-12T07:20:26.658Z,23.80
2023-02-12T07:22:56.183Z,25.97
2023-02-12T07:25:24.329Z,24.77
2023-02-12T07:27:52.500Z,21.70
2023-02-12T07:30:20.938Z,24.03
2023-02-12T07:32:49.083Z,23.23
2023-02-12T07:35:17.368Z,21.33
2023-02-12T07:37:45.488Z,21.07
2023-02-12T07:40:15.350Z,22.67
2023-02-12T07:42:43.476Z,22.20
2023-02-12T07:45:11.949Z,22.73
2023-02-12T07:47:40.711Z,22.73
2023-02-12T07:50:09.233Z,21.43
2023-02-12T07:52:37.400Z,22.57
2023-02-12T07:55:05.644Z,21.13
2023-02-12T07:57:36.127Z,20.60
2023-02-12T08:00:05.274Z,21.80
2023-02-12T08:02:33.572Z,21.53
2023-02-12T08:05:01.709Z,20.80
2023-02-12T08:07:29.864Z,21.03
2023-02-12T08:09:58.073Z,20.90
2023-02-12T08:12:26.318Z,20.33
2023-02-12T08:14:55.827Z,21.17
2023-02-12T08:17:23.967Z,20.67
2023-02-12T08:19:52.129Z,21.27
2023-02-12T08:22:20.643Z,21.27
2023-02-12T08:24:49.084Z,20.60
2023-02-12T08:27:17.235Z,19.70
2023-02-12T08:29:45.412Z,20.57
2023-02-12T08:32:16.512Z,20.03
2023-02-12T08:34:44.665Z,18.23
2023-02-12T08:37:12.914Z,19.00
2023-02-12T08:39:41.049Z,20.37
2023-02-12T08:42:09.182Z,18.07
2023-02-12T08:44:37.806Z,19.33
2023-02-12T08:47:07.079Z,18.90
2023-02-12T08:49:36.610Z,17.10
2023-02-12T08:52:04.841Z,19.40
2023-02-12T08:54:33.432Z,17.60
2023-02-12T08:57:03.069Z,17.90
2023-02-12T08:59:31.802Z,17.50
2023-02-12T09:02:00.499Z,18.77
2023-02-12T09:04:29.579Z,19.17
2023-02-12T09:06:59.151Z,17.67
2023-02-12T09:09:27.315Z,18.77
2023-02-12T09:11:55.561Z,18.83
2023-02-12T09:14:24.903Z,17.27
2023-02-12T09:16:53.804Z,17.53
2023-02-12T09:19:22.177Z,17.63
2023-02-12T09:21:55.254Z,18.10
2023-02-12T09:24:25.572Z,18.63
2023-02-12T09:26:53.806Z,18.20
2023-02-12T09:29:21.964Z,17.80
2023-02-12T09:31:50.216Z,17.80
2023-02-12T09:34:18.456Z,17.33
2023-02-12T09:36:46.610Z,18.20
2023-02-12T09:39:14.737Z,18.23
2023-02-12T09:41:54.299Z,17.60
2023-02-12T09:44:24.332Z,19.13
2023-02-12T09:46:55.033Z,17.83
2023-02-12T09:49:28.218Z,18.23
2023-02-12T09:51:57.002Z,19.07
2023-02-12T09:54:27.224Z,18.70
2023-02-12T09:57:00.559Z,18.77
2023-02-12T09:59:32.295Z,19.37
2023-02-12T10:02:00.856Z,17.37
2023-02-12T10:04:29.775Z,18.80
2023-02-12T10:07:03.518Z,18.30
2023-02-12T10:09:44.183Z,19.80
2023-02-12T10:12:18.623Z,19.37
2023-02-12T10:15:01.645Z,22.07
2023-02-12T10:17:35.147Z,21.47
2023-02-12T10:20:13.654Z,22.03
2023-02-12T10:22:56.055Z,21.67
2023-02-12T10:25:28.090Z,20.97
2023-02-12T10:27:58.536Z,21.70
2023-02-12T10:30:28.932Z,21.63
2023-02-12T10:33:00.674Z,22.83
2023-02-12T10:35:29.051Z,22.20
2023-02-12T10:37:59.382Z,20.10
2023-02-12T10:40:29.987Z,21.77
2023-02-12T10:43:00.045Z,23.30
2023-02-12T10:45:30.923Z,21.60
2023-02-12T10:48:05.835Z,22.73
2023-02-12T10:50:38.851Z,21.83
2023-02-12T10:53:06.990Z,23.57
2023-02-12T10:55:36.732Z,22.83
2023-02-12T10:58:07.167Z,23.33
2023-02-12T11:00:36.713Z,22.23
2023-02-12T11:03:07.075Z,22.47
2023-02-12T11:05:36.554Z,23.60
2023-02-12T11:08:05.379Z,22.97
2023-02-12T11:10:34.380Z,23.57
2023-02-12T11:13:03.136Z,23.67
2023-02-12T11:15:36.800Z,23.23
2023-02-12T11:18:07.423Z,24.27
2023-02-12T11:20:39.346Z,23.30
2023-02-12T11:23:08.690Z,23.87
2023-02-12T11:25:38.026Z,24.73
2023-02-12T11:28:17.123Z,24.50
2023-02-12T11:30:52.291Z,24.27
2023-02-12T11:33:38.925Z,24.77
2023-02-12T11:36:09.734Z,22.93
2023-02-12T11:38:39.437Z,23.27
2023-02-12T11:41:20.610Z,22.47
2023-02-12T11:43:48.844Z,22.20
2023-02-12T11:46:23.380Z,21.80
2023-02-12T11:48:52.945Z,22.00
2023-02-12T11:51:22.867Z,21.20
2023-02-12T11:53:52.660Z,22.33
2023-02-12T11:56:21.559Z,22.30
2023-02-12T11:58:50.185Z,23.47
2023-02-12T12:01:21.125Z,23.07
2023-02-12T12:03:57.710Z,23.87
2023-02-12T12:06:34.661Z,23.83
2023-02-12T12:09:06.137Z,22.27
2023-02-12T12:11:38.096Z,24.60
2023-02-12T12:14:10.784Z,23.10
2023-02-12T12:17:07.803Z,22.20
2023-02-12T12:19:55.745Z,22.53
2023-02-12T12:22:34.886Z,22.13
2023-02-12T12:25:07.253Z,23.13
2023-02-12T12:27:55.689Z,23.87
2023-02-12T12:30:24.926Z,22.40
2023-02-12T12:32:54.317Z,21.90
2023-02-12T12:35:40.953Z,21.27
2023-02-12T12:38:14.105Z,21.83
2023-02-12T12:40:51.992Z,21.43
2023-02-12T12:43:24.271Z,20.17
2023-02-12T12:45:59.381Z,22.13
2023-02-12T12:48:34.361Z,19.73
2023-02-12T12:51:08.820Z,21.20
2023-02-12T12:53:43.129Z,21.53
2023-02-12T12:56:14.975Z,21.40
2023-02-12T12:58:51.810Z,22.17
2023-02-12T13:01:34.874Z,21.60
2023-02-12T13:04:12.662Z,21.13
2023-02-12T13:06:49.190Z,21.13
2023-02-12T13:09:24.445Z,23.47
2023-02-12T13:12:00.556Z,21.70
2023-02-12T13:14:37.140Z,22.50
2023-02-12T13:17:09.158Z,24.07
2023-02-12T13:19:44.058Z,23.50
2023-02-12T13:22:18.712Z,24.53
2023-02-12T13:24:49.169Z,24.00
2023-02-12T13:27:19.338Z,25.63
2023-02-12T13:29:50.154Z,23.20
2023-02-12T13:32:22.242Z,24.23
2023-02-12T13:34:50.747Z,25.53
2023-02-12T13:37:21.654Z,25.97
2023-02-12T13:39:50.953Z,25.57
2023-02-12T13:42:26.933Z,25.43
2023-02-12T13:44:58.832Z,24.90
2023-02-12T13:47:31.670Z,23.67
2023-02-12T13:50:02.813Z,25.73
2023-02-12T13:52:36.076Z,25.00
2023-02-12T13:55:14.681Z,25.00
2023-02-12T13:57:42.825Z,22.63
2023-02-12T14:00:25.860Z,23.77
2023-02-12T14:02:54.212Z,23.97
2023-02-12T14:05:27.036Z,24.23
2023-02-12T14:07:57.904Z,24.17
2023-02-12T14:10:28.296Z,24.87
2023-02-12T14:12:58.329Z,23.73
2023-02-12T14:15:30.025Z,22.63
2023-02-12T14:18:05.851Z,23.03
2023-02-12T14:20:34.786Z,22.43
2023-02-12T14:23:20.852Z,23.40
2023-02-12T14:25:57.723Z,22.60
2023-02-12T14:28:29.119Z,23.10
2023-02-12T14:31:21.216Z,21.77
2023-02-12T14:33:50.324Z,22.67
2023-02-12T14:36:20.005Z,23.20
2023-02-12T14:39:03.080Z,23.03
2023-02-12T14:41:38.438Z,21.77
2023-02-12T14:44:27.196Z,22.40
2023-02-12T14:46:56.195Z,22.53
2023-02-12T14:49:26.520Z,22.57
2023-02-12T14:51:57.125Z,24.60
2023-02-12T14:54:29.540Z,23.13
2023-02-12T14:57:01.443Z,24.57
2023-02-12T14:59:30.842Z,24.13
2023-02-12T15:02:00.536Z,23.77
2023-02-12T15:04:29.845Z,23.37
2023-02-12T15:06:59.665Z,23.23
2023-02-12T15:09:31.084Z,23.17
2023-02-12T15:12:04.255Z,22.90
2023-02-12T15:14:33.609Z,22.83
2023-02-12T15:17:04.700Z,23.97
2023-02-12T15:19:36.128Z,23.57
2023-02-12T15:22:04.636Z,24.93
2023-02-12T15:24:32.770Z,23.23
2023-02-12T15:27:02.320Z,25.63
2023-02-12T15:29:32.959Z,25.53
2023-02-12T15:32:02.477Z,27.00
2023-02-12T15:34:33.316Z,24.93
2023-02-12T15:37:02.472Z,25.67
2023-02-12T15:39:43.450Z,26.63
2023-02-12T15:42:26.492Z,26.80
2023-02-12T15:45:03.160Z,26.57
2023-02-12T15:47:31.309Z,27.63
2023-02-12T15:50:01.396Z,26.17
2023-02-12T15:52:34.748Z,25.80
2023-02-12T15:55:03.102Z,26.20
2023-02-12T15:57:32.869Z,26.47
2023-02-12T16:00:04.855Z,25.90
2023-02-12T16:02:34.329Z,26.57
2023-02-12T16:05:03.813Z,26.33
2023-02-12T16:07:34.994Z,25.80
2023-02-12T16:10:03.954Z,25.93
2023-02-12T16:12:36.839Z,26.70
2023-02-12T16:15:05.716Z,24.80
2023-02-12T16:17:35.283Z,25.50
2023-02-12T16:20:06.489Z,24.70
2023-02-12T16:22:35.683Z,24.97
2023-02-12T16:25:04.304Z,24.50
2023-02-12T16:27:35.205Z,26.60
2023-02-12T16:30:04.928Z,24.03
2023-02-12T16:32:37.527Z,24.47
2023-02-12T16:35:08.129Z,24.77
2023-02-12T16:37:44.294Z,23.90
2023-02-12T16:40:21.361Z,23.93
2023-02-12T16:43:07.666Z,24.70
2023-02-12T16:45:40.363Z,24.90
2023-02-12T16:48:10.548Z,22.57
2023-02-12T16:50:40.277Z,24.50
2023-02-12T16:53:09.414Z,23.97
2023-02-12T16:55:37.575Z,24.57
2023-02-12T16:58:07.213Z,23.80
2023-02-12T17:00:35.390Z,23.57
2023-02-12T17:03:03.649Z,23.87
2023-02-12T17:05:31.843Z,24.60
2023-02-12T17:07:59.965Z,23.03
2023-02-12T17:10:28.095Z,24.43
2023-02-12T17:12:56.267Z,24.93
2023-02-12T17:15:30.150Z,24.30
2023-02-12T17:17:58.302Z,25.17
2023-02-12T17:20:26.559Z,23.80
2023-02-12T17:22:57.158Z,24.50
2023-02-12T17:25:25.639Z,24.80
2023-02-12T17:27:53.848Z,24.30
2023-02-12T17:30:22.166Z,24.93
2023-02-12T17:32:51.767Z,25.07
2023-02-12T17:35:20.082Z,24.00
2023-02-12T17:37:48.852Z,26.23
2023-02-12T17:40:17.738Z,25.80
2023-02-12T17:42:45.913Z,25.50
2023-02-12T17:45:14.068Z,26.10
2023-02-12T17:47:42.237Z,25.70
2023-02-12T17:50:13.986Z,25.27
2023-02-12T17:52:42.153Z,27.03
2023-02-12T17:55:11.389Z,24.77
2023-02-12T17:57:39.746Z,24.90
2023-02-12T18:00:08.786Z,24.50
2023-02-12T18:02:36.955Z,26.17
2023-02-12T18:05:05.151Z,23.90
2023-02-12T18:07:35.721Z,25.30
2023-02-12T18:10:05.141Z,25.70
2023-02-12T18:12:33.624Z,24.20
2023-02-12T18:15:02.573Z,24.97
2023-02-12T18:17:30.983Z,24.00
2023-02-12T18:19:59.364Z,23.17
2023-02-12T18:22:27.670Z,24.27
2023-02-12T18:24:57.575Z,24.77
2023-02-12T18:27:25.731Z,25.23
2023-02-12T18:29:53.892Z,23.33
2023-02-12T18:32:22.178Z,23.50
2023-02-12T18:34:50.339Z,24.13
2023-02-12T18:37:18.490Z,24.47
2023-02-12T18:39:46.761Z,23.30
2023-02-12T18:42:16.267Z,23.80
2023-02-12T18:44:44.403Z,23.00
2023-02-12T18:47:12.597Z,23.87
2023-02-12T18:49:40.796Z,23.43
2023-02-12T18:52:08.995Z,24.73
2023-02-12T18:54:37.192Z,23.97
2023-02-12T18:57:05.440Z,23.33
2023-02-12T18:59:34.945Z,23.00
2023-02-12T19:02:04.495Z,23.13
2023-02-12T19:04:33.227Z,22.67
2023-02-12T19:07:01.427Z,22.80
2023-02-12T19:09:29.678Z,23.23
2023-02-12T19:11:58.445Z,24.03
2023-02-12T19:14:27.617Z,22.70
2023-02-12T19:16:57.211Z,21.93
2023-02-12T19:19:25.565Z,23.67
2023-02-12T19:21:53.689Z,23.30
2023-02-12T19:24:21.947Z,23.03
2023-02-12T19:26:52.563Z,22.50
2023-02-12T19:29:20.774Z,21.83
2023-02-12T19:31:49.375Z,23.13
2023-02-12T19:34:20.122Z,22.90
2023-02-12T19:36:48.816Z,20.77
2023-02-12T19:39:18.733Z,23.00
2023-02-12T19:41:47.051Z,22.57
2023-02-12T19:44:18.926Z,21.00
2023-02-12T19:46:47.387Z,22.93
2023-02-12T19:49:16.407Z,22.53
2023-02-12T19:51:46.204Z,22.07
2023-02-12T19:54:15.248Z,20.30
2023-02-12T19:56:43.685Z,19.57
2023-02-12T19:59:13.232Z,19.63
2023-02-12T20:01:41.545Z,19.50
2023-02-12T20:04:09.740Z,19.53
2023-02-12T20:06:38.845Z,20.43
2023-02-12T20:09:08.803Z,19.83
2023-02-12T20:11:39.198Z,20.50
2023-02-12T20:14:07.851Z,20.10
2023-02-12T20:16:38.204Z,20.00
2023-02-12T20:19:08.418Z,21.43
2023-02-12T20:21:36.823Z,21.57
2023-02-12T20:24:05.466Z,20.50
2023-02-12T20:26:35.040Z,19.73
2023-02-12T20:29:05.195Z,21.17
2023-02-12T20:31:35.801Z,19.70
2023-02-12T20:34:05.224Z,20.73
2023-02-12T20:36:33.980Z,19.90
2023-02-12T20:39:02.529Z,19.97
2023-02-12T20:41:30.682Z,22.33
2023-02-12T20:44:01.374Z,21.33
2023-02-12T20:46:29.650Z,20.33
2023-02-12T20:48:58.323Z,20.83
2023-02-12T20:51:27.322Z,20.43
2023-02-12T20:53:56.225Z,21.13
2023-02-12T20:56:25.574Z,19.90
2023-02-12T20:58:54.055Z,20.20
2023-02-12T21:01:24.495Z,21.07
2023-02-12T21:03:53.685Z,19.80
2023-02-12T21:06:22.745Z,19.90
2023-02-12T21:08:51.575Z,19.37
2023-02-12T21:11:20.950Z,19.77
2023-02-12T21:13:59.017Z,20.80
2023-02-12T21:16:33.395Z,19.57
2023-02-12T21:19:01.939Z,18.87
2023-02-12T21:21:30.846Z,20.70
2023-02-12T21:23:59.711Z,20.50
2023-02-12T21:26:29.229Z,21.20
2023-02-12T21:28:58.160Z,20.30
2023-02-12T21:31:27.702Z,19.00
2023-02-12T21:33:58.296Z,20.10
2023-02-12T21:36:27.988Z,19.63
2023-02-12T21:38:56.898Z,19.63
2023-02-12T21:41:25.732Z,19.30
2023-02-12T21:43:54.569Z,19.37
2023-02-12T21:46:23.379Z,19.87
2023-02-12T21:48:52.204Z,18.63
2023-02-12T21:51:22.478Z,18.73
2023-02-12T21:53:51.262Z,18.23
2023-02-12T21:56:19.889Z,18.20
2023-02-12T21:58:48.254Z,17.40
2023-02-12T22:01:17.306Z,17.60
2023-02-12T22:03:45.910Z,17.83
2023-02-12T22:06:14.925Z,17.73
2023-02-12T22:08:44.411Z,16.20
2023-02-12T22:11:13.690Z,16.57
2023-02-12T22:13:42.279Z,16.33
2023-02-12T22:16:11.055Z,15.20
2023-02-12T22:18:39.705Z,15.47
2023-02-12T22:21:11.317Z,16.77
2023-02-12T22:23:41.358Z,16.00
2023-02-12T22:26:12.273Z,16.47
2023-02-12T22:28:41.400Z,17.90
2023-02-12T22:31:09.585Z,19.20
2023-02-12T22:33:37.730Z,18.00
2023-02-12T22:36:06.925Z,18.37
2023-02-12T22:38:35.121Z,18.33
2023-02-12T22:41:03.349Z,16.17
2023-02-12T22:43:33.249Z,16.57
2023-02-12T22:46:01.452Z,16.53
2023-02-12T22:48:30.234Z,16.33
2023-02-12T22:50:59.151Z,15.60
2023-02-12T22:53:29.154Z,14.83
2023-02-12T22:55:57.300Z,15.10
2023-02-12T22:58:25.420Z,15.73
2023-02-12T23:00:55.008Z,15.10
2023-02-12T23:03:23.195Z,14.70
2023-02-12T23:05:51.343Z,14.83
2023-02-12T23:08:19.469Z,14.80
2023-02-12T23:10:47.583Z,14.70
2023-02-12T23:13:29.034Z,13.07
2023-02-12T23:15:59.560Z,14.10
2023-02-12T23:18:27.864Z,14.73
2023-02-12T23:20:56.284Z,13.27
2023-02-12T23:23:24.621Z,13.53
2023-02-12T23:25:54.586Z,12.83
2023-02-12T23:28:23.104Z,13.17
2023-02-12T23:30:52.215Z,14.33
2023-02-12T23:33:21.831Z,14.10
2023-02-12T23:35:50.397Z,14.30
2023-02-12T23:38:18.898Z,13.50
2023-02-12T23:40:48.251Z,13.83
2023-02-12T23:43:16.425Z,12.43
2023-02-12T23:45:44.837Z,12.00
2023-02-12T23:48:13.352Z,14.07
2023-02-12T23:50:43.003Z,12.97
2023-02-12T23:53:11.301Z,12.43
2023-02-12T23:55:41.086Z,12.33
2023-02-12T23:58:09.291Z,13.10
